Time;durP1;ratioP1;P1;durP2;ratioP2;P2;SDS_P1;SDS_P2;PMS_P1;PMS_P2;Temp;Humidity;BMP_temperature;BMP_pressure;BME280_temperature;BME280_humidity;BME280_pressure;Samples;Min_cycle;Max_cycle;Signal;HPM_P1;HPM_P2
2023/04/02 00:00:09;;;;;;;7.55;2.78;;;;;;;2.25;100.00;101573.50;5061942;28;20048;-77
2023/04/02 00:02:57;;;;;;;4.15;2.50;;;;;;;2.22;100.00;101578.53;5053706;28;20049;-77
2023/04/02 00:05:30;;;;;;;3.70;2.50;;;;;;;2.20;100.00;101577.56;5065507;28;20044;-77
2023/04/02 00:08:02;;;;;;;3.30;2.15;;;;;;;2.21;100.00;101586.25;5066583;28;20145;-77
2023/04/02 00:10:48;;;;;;;5.30;2.10;;;;;;;2.16;100.00;101588.63;5037300;28;20052;-77
2023/04/02 00:13:21;;;;;;;8.10;2.88;;;;;;;2.17;100.00;101592.13;5007171;28;20651;-77
2023/04/02 00:15:51;;;;;;;5.72;2.38;;;;;;;2.16;100.00;101598.16;5063585;28;20052;-77
2023/04/02 00:18:20;;;;;;;5.25;2.20;;;;;;;2.14;100.00;101600.69;5054026;28;20056;-77
2023/04/02 00:21:15;;;;;;;6.95;2.88;;;;;;;2.10;100.00;101603.94;5065283;28;20068;-77
2023/04/02 00:23:45;;;;;;;5.68;2.30;;;;;;;2.08;100.00;101615.94;5041529;28;20048;-78
2023/04/02 00:26:33;;;;;;;6.90;2.30;;;;;;;2.05;100.00;101619.28;5049448;28;20061;-77
2023/04/02 00:29:03;;;;;;;5.20;2.45;;;;;;;2.05;100.00;101628.81;5034367;28;20048;-78
2023/04/02 00:31:32;;;;;;;6.32;2.15;;;;;;;2.04;100.00;101640.00;5055718;28;20051;-77
2023/04/02 00:34:05;;;;;;;11.77;2.20;;;;;;;2.00;100.00;101638.97;4990723;28;1203242;-77
2023/04/02 00:36:34;;;;;;;7.90;3.10;;;;;;;2.00;100.00;101640.69;5072362;28;20052;-76
2023/04/02 00:39:06;;;;;;;5.00;2.50;;;;;;;1.96;100.00;101637.03;5058911;28;20499;-77
2023/04/02 00:41:37;;;;;;;3.05;2.05;;;;;;;1.96;100.00;101650.03;5051816;28;20045;-77
2023/04/02 00:44:05;;;;;;;7.50;2.00;;;;;;;1.93;100.00;101647.28;4992321;28;20048;-77
2023/04/02 00:46:45;;;;;;;4.20;2.03;;;;;;;1.90;100.00;101652.31;5055662;28;20503;-78
2023/04/02 00:49:28;;;;;;;6.82;2.05;;;;;;;1.87;100.00;101658.25;5064203;28;20037;-77
2023/04/02 00:52:00;;;;;;;2.63;2.20;;;;;;;1.87;100.00;101671.25;5053632;28;20052;-77
2023/04/02 00:54:36;;;;;;;4.22;2.20;;;;;;;1.84;100.00;101668.50;5065861;28;20040;-78
2023/04/02 00:57:03;;;;;;;3.20;2.15;;;;;;;1.81;100.00;101677.84;5058437;28;20040;-77
2023/04/02 00:59:34;;;;;;;8.07;2.40;;;;;;;1.81;100.00;101678.72;5019439;28;20047;-78
2023/04/02 01:02:16;;;;;;;4.00;2.13;;;;;;;1.77;100.00;101689.78;5054581;28;20057;-77
2023/04/02 01:04:58;;;;;;;2.42;1.73;;;;;;;1.74;100.00;101702.63;5045650;28;20048;-77
2023/04/02 01:07:58;;;;;;;7.70;2.33;;;;;;;1.72;100.00;101699.94;5073725;28;20052;-76
2023/04/02 01:10:37;;;;;;;5.82;2.15;;;;;;;1.68;100.00;101707.47;5057831;28;20048;-77
2023/04/02 01:13:30;;;;;;;6.78;2.42;;;;;;;1.66;100.00;101709.97;5063769;28;20059;-77
2023/04/02 01:16:22;;;;;;;8.95;1.80;;;;;;;1.64;100.00;101705.53;5015317;28;20059;-77
2023/04/02 01:19:01;;;;;;;8.18;2.88;;;;;;;1.63;100.00;101716.75;5053216;28;20060;-78
2023/04/02 01:21:51;;;;;;;7.28;2.05;;;;;;;1.60;100.00;101722.66;5046463;28;20059;-78
2023/04/02 01:24:20;;;;;;;2.63;2.00;;;;;;;1.57;100.00;101719.91;5059489;28;20075;-78
2023/04/02 01:26:56;;;;;;;2.58;2.10;;;;;;;1.56;100.00;101729.38;5043972;28;20044;-78
2023/04/02 01:29:30;;;;;;;3.47;1.48;;;;;;;1.52;100.00;101740.44;5072687;28;20052;-76
2023/04/02 01:32:06;;;;;;;5.43;2.10;;;;;;;1.51;100.00;101735.16;5020553;28;20053;-77
2023/04/02 01:34:35;;;;;;;3.80;2.00;;;;;;;1.50;100.00;101743.75;5045296;28;20060;-77
2023/04/02 01:37:35;;;;;;;5.72;1.90;;;;;;;1.46;100.00;101732.31;5063383;28;20059;-77
2023/04/02 01:40:38;;;;;;;2.17;1.90;;;;;;;1.45;100.00;101753.88;5038874;28;20419;-77
2023/04/02 01:43:42;;;;;;;2.65;2.03;;;;;;;1.44;100.00;101767.72;5044715;28;20052;-77
2023/04/02 01:46:27;;;;;;;2.22;1.60;;;;;;;1.41;100.00;101759.72;5052737;28;20056;-76
2023/04/02 01:48:56;;;;;;;4.68;1.90;;;;;;;1.40;100.00;101772.63;5034703;28;20519;-77
2023/04/02 01:51:28;;;;;;;6.22;2.17;;;;;;;1.40;100.00;101775.22;5061540;28;20040;-78
2023/04/02 01:53:59;;;;;;;6.15;1.90;;;;;;;1.34;100.00;101778.38;5046579;28;20045;-77
2023/04/02 01:56:29;;;;;;;4.70;2.58;;;;;;;1.31;100.00;101779.13;5038849;28;20052;-78
2023/04/02 01:58:58;;;;;;;3.63;1.70;;;;;;;1.29;100.00;101785.94;5044066;28;20044;-78
2023/04/02 02:01:38;;;;;;;3.33;1.83;;;;;;;1.28;100.00;101796.22;5063441;28;20048;-78
2023/04/02 02:04:09;;;;;;;2.88;1.70;;;;;;;1.25;100.00;101803.81;5022214;28;20040;-78
2023/04/02 02:06:37;;;;;;;4.82;2.00;;;;;;;1.23;100.00;101806.38;5065427;28;20044;-78
2023/04/02 02:09:06;;;;;;;4.43;2.00;;;;;;;1.22;100.00;101808.88;5022097;28;20048;-77
2023/04/02 02:11:35;;;;;;;4.72;1.70;;;;;;;1.19;100.00;101812.16;5064624;28;20059;-77
2023/04/02 02:14:25;;;;;;;3.83;1.50;;;;;;;1.19;100.00;101819.06;5069728;28;20051;-77
2023/04/02 02:16:56;;;;;;;6.93;2.45;;;;;;;1.15;100.00;101818.00;5060686;28;20053;-78
2023/04/02 02:19:38;;;;;;;3.92;1.77;;;;;;;1.14;100.00;101816.22;5018924;28;20162;-78
2023/04/02 02:22:31;;;;;;;2.70;1.80;;;;;;;1.14;100.00;101829.22;5040334;28;20059;-77
2023/04/02 02:25:02;;;;;;;6.85;1.90;;;;;;;1.12;100.00;101829.13;5067132;28;20052;-77
2023/04/02 02:28:11;;;;;;;6.35;1.98;;;;;;;1.11;100.00;101836.81;5081668;28;20048;-77
2023/04/02 02:30:55;;;;;;;3.65;1.60;;;;;;;1.09;100.00;101841.91;5054247;28;20072;-78
2023/04/02 02:33:26;;;;;;;4.20;2.38;;;;;;;1.09;100.00;101848.81;5020313;28;20051;-77
2023/04/02 02:36:03;;;;;;;5.13;1.75;;;;;;;1.07;100.00;101845.22;5047099;28;20055;-77
2023/04/02 02:38:53;;;;;;;2.97;1.60;;;;;;;1.04;100.00;101861.53;5059773;28;20399;-76
2023/04/02 02:41:34;;;;;;;2.05;1.58;;;;;;;1.03;100.00;101880.50;5076004;28;20044;-78
2023/04/02 02:44:05;;;;;;;6.00;1.75;;;;;;;1.01;100.00;101863.94;5064108;28;20055;-76
2023/04/02 02:46:36;;;;;;;2.55;1.70;;;;;;;1.00;100.00;101880.31;5063466;28;20052;-77
2023/04/02 02:49:14;;;;;;;2.05;1.60;;;;;;;0.97;100.00;101891.41;5019794;28;20037;-76
2023/04/02 02:51:51;;;;;;;3.90;1.55;;;;;;;0.96;100.00;101884.44;5061043;28;20101;-76
2023/04/02 02:54:30;;;;;;;6.65;1.88;;;;;;;0.95;100.00;101884.34;5063465;28;20435;-77
2023/04/02 02:57:02;;;;;;;6.65;1.98;;;;;;;0.95;100.00;101894.75;5045738;28;20071;-77
2023/04/02 02:59:31;;;;;;;4.28;1.70;;;;;;;0.94;100.00;101908.50;5064320;28;20422;-77
2023/04/02 03:02:01;;;;;;;2.95;1.58;;;;;;;0.92;100.00;101904.94;5032814;28;20539;-77
2023/04/02 03:04:34;;;;;;;4.55;2.03;;;;;;;0.94;100.00;101898.13;5026298;28;20507;-76
2023/04/02 03:07:08;;;;;;;4.90;1.60;;;;;;;0.93;100.00;101904.13;5051498;28;20541;-76
2023/04/02 03:09:39;;;;;;;6.03;1.98;;;;;;;0.93;100.00;101905.03;5057925;28;20040;-76
2023/04/02 03:12:40;;;;;;;2.03;1.60;;;;;;;0.91;100.00;101917.00;5067338;28;20056;-76
2023/04/02 03:15:20;;;;;;;4.75;1.70;;;;;;;0.91;100.00;101921.31;5066621;28;20048;-77
2023/04/02 03:17:58;;;;;;;3.88;1.80;;;;;;;0.90;100.00;101920.41;5049080;28;20206;-77
2023/04/02 03:20:43;;;;;;;5.45;1.48;;;;;;;0.89;100.00;101938.47;5016939;28;20045;-77
2023/04/02 03:23:37;;;;;;;7.15;1.83;;;;;;;0.89;100.00;101935.88;5036156;28;20136;-77
2023/04/02 03:26:32;;;;;;;4.53;1.83;;;;;;;0.89;100.00;101938.47;5041086;28;20033;-77
2023/04/02 03:29:12;;;;;;;3.08;1.77;;;;;;;0.87;100.00;101937.47;5055519;28;20049;-78
2023/04/02 03:31:55;;;;;;;5.00;1.85;;;;;;;0.86;100.00;101946.97;5048381;28;20055;-77
2023/04/02 03:34:33;;;;;;;6.93;1.58;;;;;;;0.86;100.00;101951.28;5047945;28;20057;-78
2023/04/02 03:37:20;;;;;;;4.88;1.77;;;;;;;0.84;100.00;101956.38;5054948;28;20863;-76
2023/04/02 03:40:01;;;;;;;3.83;1.67;;;;;;;0.83;100.00;101970.13;5058972;28;20077;-77
2023/04/02 03:42:46;;;;;;;3.78;1.73;;;;;;;0.83;100.00;101980.50;5048348;28;20052;-77
2023/04/02 03:45:37;;;;;;;5.25;1.77;;;;;;;0.81;100.00;101983.84;5064197;28;20056;-77
2023/04/02 03:48:28;;;;;;;4.05;1.50;;;;;;;0.80;100.00;101989.84;5042436;28;20049;-77
2023/04/02 03:51:54;;;;;;;5.07;1.52;;;;;;;0.77;100.00;101994.00;5022287;28;20045;-76
2023/04/02 03:54:22;;;;;;;5.75;1.75;;;;;;;0.76;100.00;102000.03;5047751;28;20071;-77
2023/04/02 03:56:51;;;;;;;6.97;1.88;;;;;;;0.75;100.00;102008.59;5064222;28;20060;-76
2023/04/02 03:59:36;;;;;;;4.85;1.42;;;;;;;0.76;100.00;102013.00;5047752;28;20048;-76
2023/04/02 04:02:14;;;;;;;4.53;1.63;;;;;;;0.76;100.00;102015.59;5020272;28;20052;-77
2023/04/02 04:04:45;;;;;;;6.10;1.65;;;;;;;0.76;100.00;102019.88;5064648;28;20072;-77
2023/04/02 04:07:21;;;;;;;5.20;1.80;;;;;;;0.75;100.00;102024.16;5010952;28;20067;-76
2023/04/02 04:09:51;;;;;;;5.78;1.50;;;;;;;0.74;100.00;102024.09;5045668;28;20053;-77
2023/04/02 04:12:24;;;;;;;7.00;1.60;;;;;;;0.75;100.00;102034.53;5041115;28;20044;-76
2023/04/02 04:15:12;;;;;;;6.78;3.60;;;;;;;0.76;100.00;102032.88;5066496;28;20047;-76
2023/04/02 04:18:01;;;;;;;6.38;1.73;;;;;;;0.77;100.00;102040.72;5046060;28;20052;-78
2023/04/02 04:20:55;;;;;;;4.20;1.48;;;;;;;0.79;100.00;102048.59;5058679;28;20068;-77
2023/04/02 04:23:35;;;;;;;2.05;1.50;;;;;;;0.80;100.00;102046.94;5014350;28;20048;-78
2023/04/02 04:26:11;;;;;;;10.18;2.83;;;;;;;0.78;100.00;102045.13;5065086;28;20056;-78
2023/04/02 04:29:11;;;;;;;4.05;1.70;;;;;;;0.78;100.00;102047.72;5049916;28;20051;-78
2023/04/02 04:31:48;;;;;;;2.97;1.50;;;;;;;0.79;100.00;102058.97;5049686;28;20056;-77
2023/04/02 04:34:25;;;;;;;5.78;1.83;;;;;;;0.80;100.00;102078.06;5077964;28;20064;-76
2023/04/02 04:37:00;;;;;;;8.70;1.50;;;;;;;0.81;100.00;102069.47;5063534;28;20049;-78
2023/04/02 04:40:19;;;;;;;8.98;2.30;;;;;;;0.81;100.00;102069.47;5022879;28;20053;-77
2023/04/02 04:42:52;;;;;;;4.65;1.63;;;;;;;0.82;100.00;102079.06;4976447;28;20050;-78
2023/04/02 04:45:25;;;;;;;3.78;1.70;;;;;;;0.82;100.00;102090.31;4970754;28;20061;-77
2023/04/02 04:48:12;;;;;;;4.10;1.55;;;;;;;0.83;100.00;102093.81;5035448;28;20060;-78
2023/04/02 04:50:53;;;;;;;4.38;2.00;;;;;;;0.82;100.00;102098.09;5063162;28;20078;-78
2023/04/02 04:53:25;;;;;;;5.53;1.73;;;;;;;0.83;100.00;102099.88;5045690;28;20843;-78
2023/04/02 04:55:58;;;;;;;7.20;1.85;;;;;;;0.84;100.00;102119.88;5019966;28;20056;-77
2023/04/02 04:58:59;;;;;;;7.43;1.77;;;;;;;0.85;100.00;102125.94;5036768;28;20057;-77
2023/04/02 05:01:47;;;;;;;3.80;1.63;;;;;;;0.86;100.00;102132.94;5061590;28;20044;-78
2023/04/02 05:04:35;;;;;;;5.63;1.92;;;;;;;0.83;100.00;102138.81;5044538;28;20052;-79
2023/04/02 05:07:18;;;;;;;2.40;1.30;;;;;;;0.86;100.00;102152.00;5061057;28;20048;-79
2023/04/02 05:10:00;;;;;;;5.47;1.45;;;;;;;0.87;100.00;102152.88;5050345;28;20064;-79
2023/04/02 05:12:39;;;;;;;2.42;1.50;;;;;;;0.87;100.00;102164.19;5036132;28;20045;-77
2023/04/02 05:15:30;;;;;;;6.30;1.75;;;;;;;0.89;100.00;102166.84;5046748;28;20056;-79
2023/04/02 05:18:18;;;;;;;3.45;1.20;;;;;;;0.89;100.00;102166.84;5062078;28;20048;-77
2023/04/02 05:20:56;;;;;;;8.70;1.67;;;;;;;0.90;100.00;102181.63;5062048;28;20045;-77
2023/04/02 05:23:29;;;;;;;9.68;2.20;;;;;;;0.92;100.00;102185.22;5064110;28;20050;-78
2023/04/02 05:26:08;;;;;;;5.20;1.98;;;;;;;0.94;100.00;102186.22;5055297;28;20056;-79
2023/04/02 05:28:52;;;;;;;6.80;1.63;;;;;;;0.97;100.00;102191.63;5053220;28;20545;-79
2023/04/02 05:31:39;;;;;;;5.05;2.03;;;;;;;0.99;100.00;102190.00;5061541;28;20816;-77
2023/04/02 05:34:08;;;;;;;8.93;2.22;;;;;;;0.98;100.00;102198.59;5057195;28;20059;-79
2023/04/02 05:36:36;;;;;;;3.42;1.38;;;;;;;1.01;100.00;102204.00;5062385;28;20049;-79
2023/04/02 05:39:08;;;;;;;4.43;1.92;;;;;;;1.01;100.00;102208.28;5063461;28;20067;-79
2023/04/02 05:41:46;;;;;;;3.72;1.77;;;;;;;1.02;100.00;102212.66;5066663;28;20051;-78
2023/04/02 05:44:30;;;;;;;4.13;1.75;;;;;;;0.99;100.00;102213.38;5037834;28;20048;-79
2023/04/02 05:47:11;;;;;;;3.83;1.42;;;;;;;1.02;100.00;102217.84;5049058;28;20044;-79
2023/04/02 05:49:48;;;;;;;5.97;1.95;;;;;;;1.04;100.00;102232.75;5066711;28;20029;-78
2023/04/02 05:52:28;;;;;;;8.95;1.50;;;;;;;1.08;100.00;102239.94;5064652;28;20043;-78
2023/04/02 05:55:12;;;;;;;3.40;1.63;;;;;;;1.11;100.00;102245.31;5032001;28;20083;-78
2023/04/02 05:57:49;;;;;;;5.10;1.50;;;;;;;1.14;100.00;102247.22;5007521;28;20033;-78
2023/04/02 06:00:38;;;;;;;5.97;1.60;;;;;;;1.17;100.00;102242.19;5065707;28;20060;-78
2023/04/02 06:03:31;;;;;;;6.88;1.40;;;;;;;1.23;100.00;102254.66;5063399;28;20063;-78
2023/04/02 06:06:05;;;;;;;5.10;1.40;;;;;;;1.24;100.00;102259.09;5063809;28;20040;-78
2023/04/02 06:08:41;;;;;;;2.20;1.85;;;;;;;1.27;100.00;102260.19;5065017;28;20052;-79
2023/04/02 06:11:12;;;;;;;4.07;1.42;;;;;;;1.31;100.00;102261.28;5047695;28;20056;-78
2023/04/02 06:13:42;;;;;;;3.70;1.73;;;;;;;1.36;100.00;102271.16;5013250;28;20051;-78
2023/04/02 06:16:14;;;;;;;4.35;1.30;;;;;;;1.43;100.00;102267.22;5046068;28;20522;-79
2023/04/02 06:18:42;;;;;;;3.95;1.50;;;;;;;1.49;100.00;102272.84;5049343;28;20048;-78
2023/04/02 06:21:16;;;;;;;2.08;1.42;;;;;;;1.54;100.00;102286.09;5047535;28;20049;-79
2023/04/02 06:23:52;;;;;;;3.03;1.50;;;;;;;1.61;100.00;102289.97;5050757;28;20518;-78
2023/04/02 06:26:32;;;;;;;3.47;1.42;;;;;;;1.63;100.00;102299.66;5057592;28;20045;-78
2023/04/02 06:29:06;;;;;;;2.70;1.52;;;;;;;1.66;100.00;102309.34;5011039;28;20075;-78
2023/04/02 06:31:43;;;;;;;3.25;1.48;;;;;;;1.72;100.00;102320.13;5048861;28;20052;-78
2023/04/02 06:34:21;;;;;;;6.18;1.30;;;;;;;1.74;100.00;102313.34;5052965;28;20049;-78
2023/04/02 06:37:24;;;;;;;3.40;1.60;;;;;;;1.78;100.00;102320.53;5068662;28;20060;-78
2023/04/02 06:39:59;;;;;;;3.05;1.40;;;;;;;1.81;100.00;102333.69;5055165;28;20087;-79
2023/04/02 06:42:36;;;;;;;1.73;1.40;;;;;;;1.85;100.00;102329.59;5055929;28;20063;-79
2023/04/02 06:45:37;;;;;;;3.67;1.35;;;;;;;1.93;100.00;102337.06;5023437;28;20049;-78
2023/04/02 06:48:20;;;;;;;6.03;1.33;;;;;;;2.07;100.00;102332.72;5052468;28;20048;-78
2023/04/02 06:51:15;;;;;;;3.03;1.20;;;;;;;2.17;100.00;102344.56;5079559;28;20052;-78
2023/04/02 06:53:46;;;;;;;2.67;1.27;;;;;;;2.34;100.00;102345.59;5057786;28;20526;-79
2023/04/02 06:56:25;;;;;;;5.35;1.55;;;;;;;2.56;100.00;102354.72;5067742;28;20641;-78
2023/04/02 06:58:53;;;;;;;3.55;1.23;;;;;;;2.78;100.00;102357.81;5047622;28;20053;-78
2023/04/02 07:01:27;;;;;;;2.85;1.30;;;;;;;2.95;100.00;102363.06;5017724;28;20068;-78
2023/04/02 07:03:56;;;;;;;2.53;1.00;;;;;;;2.98;100.00;102369.38;5068845;28;20060;-79
2023/04/02 07:06:33;;;;;;;7.20;1.90;;;;;;;2.92;100.00;102376.81;5052236;28;20053;-78
2023/04/02 07:09:02;;;;;;;2.45;1.30;;;;;;;2.87;100.00;102378.25;5067891;28;20826;-79
2023/04/02 07:11:29;;;;;;;2.33;1.55;;;;;;;2.85;100.00;102377.25;5080346;28;20047;-79
2023/04/02 07:14:00;;;;;;;;;;;;;;;2.86;100.00;102387.78;5029505;28;20053;-79
2023/04/02 07:16:31;;;;;;;3.97;1.40;;;;;;;2.92;100.00;102382.03;5013227;28;19939;-78
2023/04/02 07:18:59;;;;;;;2.03;1.13;;;;;;;3.00;100.00;102398.09;5047537;28;20120;-79
2023/04/02 07:21:30;;;;;;;;;;;;;;;3.11;100.00;102400.53;5067458;28;20045;-77
2023/04/02 07:23:57;;;;;;;4.70;1.50;;;;;;;3.22;100.00;102403.75;5051231;28;19928;-79
2023/04/02 07:26:26;;;;;;;6.47;1.30;;;;;;;3.57;100.00;102409.19;5048169;28;20055;-78
2023/04/02 07:28:55;;;;;;;7.03;1.50;;;;;;;4.04;100.00;102397.91;5048713;28;20044;-79
2023/04/02 07:31:27;;;;;;;2.88;1.58;;;;;;;4.44;100.00;102402.66;5064951;28;20538;-79
2023/04/02 07:33:58;;;;;;;4.78;1.10;;;;;;;4.86;100.00;102403.13;5032733;28;20500;-78
2023/04/02 07:36:28;;;;;;;2.28;1.50;;;;;;;5.05;100.00;102405.84;5051998;28;20051;-78
2023/04/02 07:38:55;;;;;;;3.22;1.30;;;;;;;5.03;100.00;102417.94;5051605;28;20045;-78
2023/04/02 07:41:22;;;;;;;4.53;1.20;;;;;;;5.08;100.00;102413.84;5048799;28;20052;-78
2023/04/02 07:43:50;;;;;;;7.60;1.48;;;;;;;5.28;100.00;102417.44;5035851;28;20514;-78
2023/04/02 07:46:18;;;;;;;2.72;1.25;;;;;;;5.37;100.00;102414.41;5062666;28;20048;-78
2023/04/02 07:48:46;;;;;;;2.58;1.30;;;;;;;5.20;100.00;102417.91;5013515;28;20049;-79
2023/04/02 07:51:23;;;;;;;5.38;1.65;;;;;;;5.02;100.00;102437.03;5078425;28;20059;-79
2023/04/02 07:53:54;;;;;;;4.95;1.23;;;;;;;4.88;100.00;102415.44;5051605;28;20044;-79
2023/04/02 07:56:23;;;;;;;5.85;1.50;;;;;;;4.80;100.00;102422.00;5067199;28;20063;-79
2023/04/02 07:58:51;;;;;;;2.75;1.20;;;;;;;4.68;100.00;102437.00;5066498;28;20056;-79
2023/04/02 08:01:23;;;;;;;2.30;1.15;;;;;;;4.64;100.00;102425.50;5047862;28;20051;-79
2023/04/02 08:03:52;;;;;;;1.55;1.00;;;;;;;4.73;100.00;102416.38;5024110;28;20047;-79
2023/04/02 08:06:22;;;;;;;2.75;1.50;;;;;;;4.89;100.00;102445.06;5066638;28;20060;-79
2023/04/02 08:08:49;;;;;;;7.13;1.48;;;;;;;4.85;100.00;102444.00;5056672;28;20063;-79
2023/04/02 08:11:17;;;;;;;3.03;1.20;;;;;;;5.02;100.00;102437.03;5047522;28;20067;-80
2023/04/02 08:13:44;;;;;;;2.60;0.93;;;;;;;5.16;100.00;102423.78;5050455;28;20040;-78
2023/04/02 08:16:12;;;;;;;3.80;1.40;;;;;;;5.35;100.00;102434.34;5078736;28;20460;-79
2023/04/02 08:18:40;;;;;;;2.47;1.05;;;;;;;5.54;100.00;102438.78;5062926;28;20048;-79
2023/04/02 08:21:09;;;;;;;2.38;1.15;;;;;;;5.68;100.00;102441.16;4996334;28;20048;-78
2023/04/02 08:23:36;;;;;;;3.65;1.42;;;;;;;5.88;100.00;102447.34;5050881;28;20051;-79
2023/04/02 08:26:05;;;;;;;2.65;1.33;;;;;;;6.03;100.00;102458.56;5062560;28;20036;-79
2023/04/02 08:28:33;;;;;;;1.95;1.27;;;;;;;6.08;100.00;102449.22;5050274;28;20059;-79
2023/04/02 08:31:01;;;;;;;6.20;1.50;;;;;;;6.15;100.00;102456.56;5048015;28;20739;-77
2023/04/02 08:33:28;;;;;;;2.40;1.08;;;;;;;6.21;100.00;102463.78;5068044;28;20049;-79
2023/04/02 08:35:55;;;;;;;4.68;1.25;;;;;;;6.20;100.00;102456.75;5022877;28;20048;-78
2023/04/02 08:38:24;;;;;;;2.17;1.10;;;;;;;6.20;100.00;102459.38;5054760;28;20040;-77
2023/04/02 08:40:55;;;;;;;3.97;1.15;;;;;;;6.28;100.00;102475.47;5083511;28;20055;-77
2023/04/02 08:43:29;;;;;;;5.15;1.77;;;;;;;6.39;100.00;102488.22;5055912;28;20044;-77
2023/04/02 08:46:09;;;;;;;2.92;1.20;;;;;;;6.60;100.00;102480.47;5061853;28;20045;-78
2023/04/02 08:48:39;;;;;;;8.10;1.30;;;;;;;6.64;100.00;102481.50;5066544;28;20060;-79
2023/04/02 08:51:21;;;;;;;4.55;1.42;;;;;;;6.76;100.00;102492.50;5024152;28;20049;-79
2023/04/02 08:53:52;;;;;;;4.78;1.42;;;;;;;6.71;100.00;102487.88;5061859;28;20071;-77
2023/04/02 08:56:25;;;;;;;;;;;;;;;6.66;100.00;102486.81;5060846;28;20059;-77
2023/04/02 08:58:56;;;;;;;2.30;0.80;;;;;;;6.78;100.00;102493.47;5049339;28;19947;-79
2023/04/02 09:01:42;;;;;;;4.03;1.00;;;;;;;6.72;100.00;102513.28;5063035;28;20071;-78
2023/04/02 09:04:16;;;;;;;2.28;0.93;;;;;;;6.65;100.00;102496.38;5066478;28;20044;-79
2023/04/02 09:06:47;;;;;;;2.67;1.20;;;;;;;6.67;100.00;102502.56;5027252;28;20075;-79
2023/04/02 09:09:16;;;;;;;1.00;0.90;;;;;;;6.66;100.00;102503.41;5066231;28;20079;-77
2023/04/02 09:11:51;;;;;;;3.78;1.10;;;;;;;6.56;100.00;102507.34;5059147;28;20040;-78
2023/04/02 09:14:27;;;;;;;3.90;1.27;;;;;;;6.41;100.00;102491.81;5059373;28;20044;-79
2023/04/02 09:17:00;;;;;;;3.85;1.30;;;;;;;6.31;100.00;102507.91;5056679;28;20060;-79
2023/04/02 09:19:36;;;;;;;2.90;1.02;;;;;;;6.29;100.00;102509.53;5064180;28;20044;-79
2023/04/02 09:22:07;;;;;;;6.32;1.10;;;;;;;6.15;100.00;102506.28;5023820;28;20049;-79
2023/04/02 09:24:36;;;;;;;2.22;1.10;;;;;;;6.19;100.00;102515.19;5034829;28;20044;-78
2023/04/02 09:27:20;;;;;;;1.38;1.00;;;;;;;6.19;100.00;102502.97;5075806;28;20045;-79
2023/04/02 09:29:56;;;;;;;2.05;1.20;;;;;;;6.26;100.00;102514.66;5053159;28;20040;-78
2023/04/02 09:32:45;;;;;;;1.00;1.00;;;;;;;6.21;100.00;102524.88;5066634;28;20056;-78
2023/04/02 09:35:19;;;;;;;1.67;1.23;;;;;;;6.20;100.00;102519.56;5046873;28;20316;-78
2023/04/02 09:38:18;;;;;;;1.92;1.00;;;;;;;6.28;100.00;102530.44;5030221;28;20056;-78
2023/04/02 09:41:02;;;;;;;2.05;0.95;;;;;;;6.37;100.00;102542.25;5045890;28;20049;-78
2023/04/02 09:43:35;;;;;;;2.40;1.00;;;;;;;6.36;100.00;102536.94;5078826;28;20041;-78
2023/04/02 09:46:12;;;;;;;2.00;1.10;;;;;;;6.40;100.00;102546.72;5060296;28;20051;-79
2023/04/02 09:48:44;;;;;;;0.95;0.88;;;;;;;6.51;100.00;102548.13;5040088;28;20040;-79
2023/04/02 09:51:20;;;;;;;4.53;1.63;;;;;;;6.59;100.00;102545.88;5062782;28;20048;-79
2023/04/02 09:54:07;;;;;;;4.32;1.20;;;;;;;6.67;100.00;102540.97;5005704;28;20056;-79
2023/04/02 09:56:37;;;;;;;8.80;1.10;;;;;;;6.67;100.00;102556.69;5046112;28;20880;-78
2023/04/02 09:59:20;;;;;;;3.20;0.95;;;;;;;6.69;100.00;102548.09;5072606;28;20499;-78
2023/04/02 10:01:54;;;;;;;2.88;0.90;;;;;;;6.67;100.00;102557.59;5057083;28;20044;-78
2023/04/02 10:04:46;;;;;;;2.70;0.93;;;;;;;6.68;100.00;102558.50;5059142;28;20048;-78
2023/04/02 10:07:40;;;;;;;1.58;0.82;;;;;;;6.74;100.00;102569.25;5081105;28;20589;-79
2023/04/02 10:10:26;;;;;;;1.45;0.93;;;;;;;6.66;100.00;102568.03;5012095;28;20079;-78
2023/04/02 10:13:01;;;;;;;1.48;0.80;;;;;;;6.66;100.00;102568.03;5070990;28;20056;-78
2023/04/02 10:15:43;;;;;;;1.38;1.08;;;;;;;6.64;100.00;102574.06;5062308;28;20056;-79
2023/04/02 10:18:25;;;;;;;1.70;0.90;;;;;;;6.62;100.00;102572.22;5073999;28;20052;-78
2023/04/02 10:20:56;;;;;;;1.83;1.00;;;;;;;6.59;100.00;102591.28;5052151;28;20048;-79
2023/04/02 10:23:28;;;;;;;1.25;0.65;;;;;;;6.59;100.00;102575.56;5045987;28;20048;-79
2023/04/02 10:26:10;;;;;;;1.95;0.90;;;;;;;6.63;100.00;102576.63;5064835;28;20052;-79
2023/04/02 10:28:47;;;;;;;2.47;0.70;;;;;;;6.64;100.00;102573.19;5068980;28;20067;-78
2023/04/02 10:31:30;;;;;;;2.03;0.88;;;;;;;6.78;100.00;102589.53;5062101;28;20052;-77
2023/04/02 10:34:01;;;;;;;2.03;0.88;;;;;;;6.80;100.00;102585.25;5064150;28;20045;-78
2023/04/02 10:36:47;;;;;;;2.25;0.90;;;;;;;6.83;97.73;102574.94;5041378;28;20055;-77
2023/04/02 10:39:43;;;;;;;2.60;0.70;;;;;;;6.85;100.00;102589.00;5025360;28;20048;-76
2023/04/02 10:42:25;;;;;;;2.05;1.10;;;;;;;6.93;100.00;102597.22;5061642;28;20040;-76
2023/04/02 10:45:30;;;;;;;3.25;0.80;;;;;;;6.92;95.53;102592.78;5046490;28;20048;-76
2023/04/02 10:48:09;;;;;;;2.30;1.10;;;;;;;6.96;99.07;102592.13;5066649;28;20530;-77
2023/04/02 10:50:53;;;;;;;1.73;0.80;;;;;;;7.01;99.10;102599.38;5067388;28;20048;-77
2023/04/02 10:53:33;;;;;;;4.20;1.05;;;;;;;7.11;100.00;102603.31;5082300;28;20037;-77
2023/04/02 10:56:04;;;;;;;3.28;1.10;;;;;;;7.07;97.48;102601.38;5022248;28;20048;-77
2023/04/02 10:58:52;;;;;;;1.83;1.08;;;;;;;7.05;95.86;102599.50;5062492;28;20048;-78
2023/04/02 11:01:29;;;;;;;1.85;0.80;;;;;;;7.01;98.81;102612.47;5063218;28;20053;-78
2023/04/02 11:04:02;;;;;;;2.92;1.35;;;;;;;7.02;99.39;102595.91;5057047;28;20048;-79
2023/04/02 11:06:36;;;;;;;1.23;0.65;;;;;;;7.11;99.09;102613.78;5053552;28;20616;-79
2023/04/02 11:09:14;;;;;;;0.93;0.70;;;;;;;7.25;99.50;102616.16;5042722;28;20076;-78
2023/04/02 11:11:45;;;;;;;3.33;1.13;;;;;;;7.31;97.63;102625.16;5010205;28;20055;-79
2023/04/02 11:14:14;;;;;;;3.80;1.00;;;;;;;7.36;100.00;102614.91;5050836;28;20051;-79
2023/04/02 11:16:42;;;;;;;0.50;0.50;;;;;;;7.45;100.00;102630.13;5051203;28;20044;-79
2023/04/02 11:19:14;;;;;;;3.83;0.90;;;;;;;7.54;100.00;102636.72;5068563;28;20045;-80
2023/04/02 11:21:44;;;;;;;1.48;0.90;;;;;;;7.58;98.18;102640.34;5073967;28;20048;-79
2023/04/02 11:24:35;;;;;;;3.47;0.90;;;;;;;7.60;98.08;102644.84;5061558;28;20044;-78
2023/04/02 11:27:19;;;;;;;1.35;0.70;;;;;;;7.58;97.43;102649.13;5009671;28;20044;-80
2023/04/02 11:30:29;;;;;;;2.67;0.80;;;;;;;7.67;94.68;102664.34;5056990;28;20052;-79
2023/04/02 11:33:34;;;;;;;1.15;0.73;;;;;;;7.54;91.88;102646.28;5050346;28;20067;-79
2023/04/02 11:36:45;;;;;;;1.58;0.80;;;;;;;7.65;97.04;102655.53;5037274;28;20053;-77
2023/04/02 11:39:45;;;;;;;1.75;0.68;;;;;;;7.76;94.90;102666.50;5062204;28;20517;-77
2023/04/02 11:42:18;;;;;;;3.13;1.10;;;;;;;7.75;97.44;102663.00;5024786;28;20052;-79
2023/04/02 11:44:46;;;;;;;2.47;1.20;;;;;;;7.81;98.38;102665.88;5053700;28;20041;-79
2023/04/02 11:47:28;;;;;;;0.68;0.68;;;;;;;7.73;93.94;102668.97;5067798;28;20747;-78
2023/04/02 11:50:00;;;;;;;0.93;0.82;;;;;;;7.62;96.05;102671.16;5063693;28;20587;-78
2023/04/02 11:52:36;;;;;;;2.50;0.95;;;;;;;7.63;94.38;102665.06;5047982;28;20053;-79
2023/04/02 11:55:31;;;;;;;1.13;1.02;;;;;;;7.70;92.65;102668.88;5056158;28;20048;-79
2023/04/02 11:58:31;;;;;;;2.70;1.02;;;;;;;7.73;94.68;102666.34;5027877;28;20057;-78
2023/04/02 12:01:08;;;;;;;2.45;1.25;;;;;;;7.66;94.85;102680.94;5044125;28;20526;-79
2023/04/02 12:04:03;;;;;;;2.20;0.80;;;;;;;7.68;97.08;102684.53;5060621;28;20040;-78
2023/04/02 12:06:45;;;;;;;3.03;0.80;;;;;;;7.80;93.61;102695.56;5052254;28;20048;-79
2023/04/02 12:09:29;;;;;;;4.30;0.93;;;;;;;7.84;94.06;102685.22;5055717;28;20032;-79
2023/04/02 12:12:00;;;;;;;3.40;0.80;;;;;;;7.90;96.83;102686.38;5064023;28;20056;-78
2023/04/02 12:14:45;;;;;;;0.80;0.80;;;;;;;7.90;95.81;102695.97;5039258;28;20060;-79
2023/04/02 12:17:41;;;;;;;1.45;0.93;;;;;;;7.87;88.51;102698.47;5042270;28;20059;-79